KDED/DED METAR and TAF weather

Enter ICAO airport designator
Station Type Date Time Source
KDED METAR 2021/02/28 03:35 UTC NOAA

KDED 280335Z AUTO 14006KT 10SM CLR 22/20 A3024 RMK AO2 T02230205


Station Type Date Time Source
KDED Decoded METAR 2021/02/28 03:35 UTC NOAA

Station name not available
Feb 27, 2021 - 10:35 PM EST / 2021.02.28 0335 UTC
Wind: from the SE (140 degrees) at 7 MPH (6 KT):0
Visibility: 10 mile(s):0
Sky conditions: clear
Temperature: 72.1 F (22.3 C)
Dew Point: 68.9 F (20.5 C)
Relative Humidity: 89%
Pressure (altimeter): 30.24 in. Hg (1024 hPa)
ob: KDED 280335Z AUTO 14006KT 10SM CLR 22/20 A3024 RMK AO2 T02230205
cycle: 3

Station Type Date Time Source
KDED TAF UTC NOAA

Error!

Example: see airport list